sensor_id;sensor_type;location;lat;lon;timestamp;temperature;humidity
18321;DHT22;54904;54.350;18.664;2023-07-28T00:01:46;19.60;99.90
18321;DHT22;54904;54.350;18.664;2023-07-28T00:04:18;19.60;99.90
18321;DHT22;54904;54.350;18.664;2023-07-28T00:06:47;19.60;99.90
18321;DHT22;54904;54.350;18.664;2023-07-28T00:09:14;19.60;99.90
18321;DHT22;54904;54.350;18.664;2023-07-28T00:11:44;19.50;99.90
18321;DHT22;54904;54.350;18.664;2023-07-28T00:14:11;19.50;99.90
18321;DHT22;54904;54.350;18.664;2023-07-28T00:16:38;19.50;99.90
18321;DHT22;54904;54.350;18.664;2023-07-28T00:19:05;19.50;99.90
18321;DHT22;54904;54.350;18.664;2023-07-28T00:21:32;19.40;99.90
18321;DHT22;54904;54.350;18.664;2023-07-28T00:24:00;19.50;99.90
18321;DHT22;54904;54.350;18.664;2023-07-28T00:26:27;19.50;99.90
18321;DHT22;54904;54.350;18.664;2023-07-28T00:28:55;19.40;99.90
18321;DHT22;54904;54.350;18.664;2023-07-28T00:31:26;19.40;99.90
18321;DHT22;54904;54.350;18.664;2023-07-28T00:33:54;19.30;99.90
18321;DHT22;54904;54.350;18.664;2023-07-28T00:36:21;19.40;99.90
18321;DHT22;54904;54.350;18.664;2023-07-28T00:38:48;19.30;99.90
18321;DHT22;54904;54.350;18.664;2023-07-28T00:41:16;19.20;99.90
18321;DHT22;54904;54.350;18.664;2023-07-28T00:43:43;19.20;99.90
18321;DHT22;54904;54.350;18.664;2023-07-28T00:46:11;19.20;99.90
18321;DHT22;54904;54.350;18.664;2023-07-28T00:48:39;19.30;99.90
18321;DHT22;54904;54.350;18.664;2023-07-28T00:51:07;19.30;99.90
18321;DHT22;54904;54.350;18.664;2023-07-28T00:53:34;19.30;99.90
18321;DHT22;54904;54.350;18.664;2023-07-28T00:56:02;19.30;99.90
18321;DHT22;54904;54.350;18.664;2023-07-28T00:58:30;19.30;99.90
18321;DHT22;54904;54.350;18.664;2023-07-28T01:00:57;19.30;99.90
18321;DHT22;54904;54.350;18.664;2023-07-28T01:03:26;19.20;99.90
18321;DHT22;54904;54.350;18.664;2023-07-28T01:05:58;19.20;99.90
18321;DHT22;54904;54.350;18.664;2023-07-28T01:08:34;19.20;99.90
18321;DHT22;54904;54.350;18.664;2023-07-28T01:11:03;19.10;99.90
18321;DHT22;54904;54.350;18.664;2023-07-28T01:13:30;19.10;99.90
18321;DHT22;54904;54.350;18.664;2023-07-28T01:15:57;19.20;99.90
18321;DHT22;54904;54.350;18.664;2023-07-28T01:18:28;19.10;99.90
18321;DHT22;54904;54.350;18.664;2023-07-28T01:20:56;19.10;99.90
18321;DHT22;54904;54.350;18.664;2023-07-28T01:23:33;19.10;99.90
18321;DHT22;54904;54.350;18.664;2023-07-28T01:26:08;19.10;99.90
18321;DHT22;54904;54.350;18.664;2023-07-28T01:28:37;19.20;99.90
18321;DHT22;54904;54.350;18.664;2023-07-28T01:31:06;19.10;99.90
18321;DHT22;54904;54.350;18.664;2023-07-28T01:33:34;19.20;99.90
18321;DHT22;54904;54.350;18.664;2023-07-28T01:36:01;19.10;99.90
18321;DHT22;54904;54.350;18.664;2023-07-28T01:38:28;19.10;99.90
18321;DHT22;54904;54.350;18.664;2023-07-28T01:40:55;19.10;99.90
18321;DHT22;54904;54.350;18.664;2023-07-28T01:43:22;19.10;99.90
18321;DHT22;54904;54.350;18.664;2023-07-28T01:45:51;19.20;99.90
18321;DHT22;54904;54.350;18.664;2023-07-28T01:48:18;19.10;99.90
18321;DHT22;54904;54.350;18.664;2023-07-28T01:50:45;19.10;99.90
18321;DHT22;54904;54.350;18.664;2023-07-28T01:53:12;19.10;99.90
18321;DHT22;54904;54.350;18.664;2023-07-28T01:55:39;19.10;99.90
18321;DHT22;54904;54.350;18.664;2023-07-28T01:58:06;19.20;99.90
18321;DHT22;54904;54.350;18.664;2023-07-28T02:00:33;19.20;99.90
18321;DHT22;54904;54.350;18.664;2023-07-28T02:03:02;19.10;99.90
18321;DHT22;54904;54.350;18.664;2023-07-28T02:05:29;19.10;99.90
18321;DHT22;54904;54.350;18.664;2023-07-28T02:07:56;19.10;99.90
18321;DHT22;54904;54.350;18.664;2023-07-28T02:10:26;19.10;99.90
18321;DHT22;54904;54.350;18.664;2023-07-28T02:12:54;19.10;99.90
18321;DHT22;54904;54.350;18.664;2023-07-28T02:15:21;19.10;99.90
18321;DHT22;54904;54.350;18.664;2023-07-28T02:17:48;19.10;99.90
18321;DHT22;54904;54.350;18.664;2023-07-28T02:20:16;19.10;99.90
18321;DHT22;54904;54.350;18.664;2023-07-28T02:22:43;19.00;99.90
18321;DHT22;54904;54.350;18.664;2023-07-28T02:25:11;19.00;99.90
18321;DHT22;54904;54.350;18.664;2023-07-28T02:27:38;19.00;99.90
18321;DHT22;54904;54.350;18.664;2023-07-28T02:30:06;19.00;99.90
18321;DHT22;54904;54.350;18.664;2023-07-28T02:32:33;19.00;99.90
18321;DHT22;54904;54.350;18.664;2023-07-28T02:35:00;18.90;99.90
18321;DHT22;54904;54.350;18.664;2023-07-28T02:37:29;19.00;99.90
18321;DHT22;54904;54.350;18.664;2023-07-28T02:39:56;18.90;99.90
18321;DHT22;54904;54.350;18.664;2023-07-28T02:42:23;19.00;99.90
18321;DHT22;54904;54.350;18.664;2023-07-28T02:44:51;18.90;99.90
18321;DHT22;54904;54.350;18.664;2023-07-28T02:47:18;19.00;99.90
18321;DHT22;54904;54.350;18.664;2023-07-28T02:49:45;19.00;99.90
18321;DHT22;54904;54.350;18.664;2023-07-28T02:52:12;19.00;99.90
18321;DHT22;54904;54.350;18.664;2023-07-28T02:54:41;18.90;99.90
18321;DHT22;54904;54.350;18.664;2023-07-28T02:57:08;18.90;99.90
18321;DHT22;54904;54.350;18.664;2023-07-28T02:59:41;18.90;99.90
18321;DHT22;54904;54.350;18.664;2023-07-28T03:02:08;18.90;99.90
18321;DHT22;54904;54.350;18.664;2023-07-28T03:04:35;18.80;99.90
18321;DHT22;54904;54.350;18.664;2023-07-28T03:07:05;18.80;99.90
18321;DHT22;54904;54.350;18.664;2023-07-28T03:09:33;18.80;99.90
18321;DHT22;54904;54.350;18.664;2023-07-28T03:12:03;18.80;99.90
18321;DHT22;54904;54.350;18.664;2023-07-28T03:14:31;18.80;99.90
18321;DHT22;54904;54.350;18.664;2023-07-28T03:16:58;18.80;99.90
18321;DHT22;54904;54.350;18.664;2023-07-28T03:19:26;18.80;99.90
18321;DHT22;54904;54.350;18.664;2023-07-28T03:21:53;18.70;99.90
18321;DHT22;54904;54.350;18.664;2023-07-28T03:24:20;18.70;99.90
18321;DHT22;54904;54.350;18.664;2023-07-28T03:26:47;18.70;99.90
18321;DHT22;54904;54.350;18.664;2023-07-28T03:29:15;18.70;99.90
18321;DHT22;54904;54.350;18.664;2023-07-28T03:31:44;18.80;99.90
18321;DHT22;54904;54.350;18.664;2023-07-28T03:34:11;18.80;99.90
18321;DHT22;54904;54.350;18.664;2023-07-28T03:36:39;18.70;99.90
18321;DHT22;54904;54.350;18.664;2023-07-28T03:39:06;18.80;99.90
18321;DHT22;54904;54.350;18.664;2023-07-28T03:41:33;18.80;99.90
18321;DHT22;54904;54.350;18.664;2023-07-28T03:44:01;18.80;99.90
18321;DHT22;54904;54.350;18.664;2023-07-28T03:46:29;18.90;99.90
18321;DHT22;54904;54.350;18.664;2023-07-28T03:48:56;18.90;99.90
18321;DHT22;54904;54.350;18.664;2023-07-28T03:51:25;18.90;99.90
18321;DHT22;54904;54.350;18.664;2023-07-28T03:53:53;18.90;99.90
18321;DHT22;54904;54.350;18.664;2023-07-28T03:56:20;18.90;99.90
18321;DHT22;54904;54.350;18.664;2023-07-28T03:58:47;18.90;99.90
18321;DHT22;54904;54.350;18.664;2023-07-28T04:01:14;18.90;99.90
18321;DHT22;54904;54.350;18.664;2023-07-28T04:03:42;18.90;99.90
18321;DHT22;54904;54.350;18.664;2023-07-28T04:06:11;18.90;99.90
18321;DHT22;54904;54.350;18.664;2023-07-28T04:08:38;18.90;99.90
18321;DHT22;54904;54.350;18.664;2023-07-28T04:11:05;19.00;99.90
18321;DHT22;54904;54.350;18.664;2023-07-28T04:13:33;18.90;99.90
18321;DHT22;54904;54.350;18.664;2023-07-28T04:16:00;18.90;99.90
18321;DHT22;54904;54.350;18.664;2023-07-28T04:18:28;18.90;99.90
18321;DHT22;54904;54.350;18.664;2023-07-28T04:20:57;18.90;99.90
18321;DHT22;54904;54.350;18.664;2023-07-28T04:23:24;18.90;99.90
18321;DHT22;54904;54.350;18.664;2023-07-28T04:25:51;18.90;99.90
18321;DHT22;54904;54.350;18.664;2023-07-28T04:28:20;18.90;99.90
18321;DHT22;54904;54.350;18.664;2023-07-28T04:30:50;18.90;99.90
18321;DHT22;54904;54.350;18.664;2023-07-28T04:33:41;18.90;99.90
18321;DHT22;54904;54.350;18.664;2023-07-28T04:36:10;18.90;99.90
18321;DHT22;54904;54.350;18.664;2023-07-28T04:38:37;18.80;99.90
18321;DHT22;54904;54.350;18.664;2023-07-28T04:41:05;18.90;99.90
18321;DHT22;54904;54.350;18.664;2023-07-28T04:43:47;18.90;99.90
18321;DHT22;54904;54.350;18.664;2023-07-28T04:46:14;18.90;99.90
18321;DHT22;54904;54.350;18.664;2023-07-28T04:48:44;19.00;99.90
18321;DHT22;54904;54.350;18.664;2023-07-28T04:51:32;18.90;99.90
18321;DHT22;54904;54.350;18.664;2023-07-28T04:54:18;19.00;99.90
18321;DHT22;54904;54.350;18.664;2023-07-28T04:56:45;19.00;99.90
18321;DHT22;54904;54.350;18.664;2023-07-28T04:59:13;19.00;99.90
18321;DHT22;54904;54.350;18.664;2023-07-28T05:01:40;19.00;99.90
18321;DHT22;54904;54.350;18.664;2023-07-28T05:04:07;19.00;99.90
18321;DHT22;54904;54.350;18.664;2023-07-28T05:06:36;19.00;99.90
18321;DHT22;54904;54.350;18.664;2023-07-28T05:09:03;19.00;99.90
18321;DHT22;54904;54.350;18.664;2023-07-28T05:11:35;19.00;99.90
18321;DHT22;54904;54.350;18.664;2023-07-28T05:14:02;19.00;99.90
18321;DHT22;54904;54.350;18.664;2023-07-28T05:16:31;19.00;99.90
18321;DHT22;54904;54.350;18.664;2023-07-28T05:19:12;19.10;99.90
18321;DHT22;54904;54.350;18.664;2023-07-28T05:21:59;19.10;99.90
18321;DHT22;54904;54.350;18.664;2023-07-28T05:24:43;19.10;99.90
18321;DHT22;54904;54.350;18.664;2023-07-28T05:27:11;19.10;99.90
18321;DHT22;54904;54.350;18.664;2023-07-28T05:29:39;19.10;99.90
18321;DHT22;54904;54.350;18.664;2023-07-28T05:32:07;19.20;99.90
18321;DHT22;54904;54.350;18.664;2023-07-28T05:34:43;19.20;99.90
18321;DHT22;54904;54.350;18.664;2023-07-28T05:37:12;19.20;99.90
18321;DHT22;54904;54.350;18.664;2023-07-28T05:39:39;19.20;99.90
18321;DHT22;54904;54.350;18.664;2023-07-28T05:42:07;19.30;99.90
18321;DHT22;54904;54.350;18.664;2023-07-28T05:44:34;19.20;99.90
18321;DHT22;54904;54.350;18.664;2023-07-28T05:47:02;19.20;99.90
18321;DHT22;54904;54.350;18.664;2023-07-28T05:49:29;19.20;99.90
18321;DHT22;54904;54.350;18.664;2023-07-28T05:51:57;19.20;99.90
18321;DHT22;54904;54.350;18.664;2023-07-28T05:54:26;19.20;99.90
18321;DHT22;54904;54.350;18.664;2023-07-28T05:56:53;19.20;99.90
18321;DHT22;54904;54.350;18.664;2023-07-28T05:59:20;19.20;99.90
18321;DHT22;54904;54.350;18.664;2023-07-28T06:01:47;19.20;99.90
18321;DHT22;54904;54.350;18.664;2023-07-28T06:04:41;19.20;99.90
18321;DHT22;54904;54.350;18.664;2023-07-28T06:07:10;19.20;99.90
18321;DHT22;54904;54.350;18.664;2023-07-28T06:09:39;19.20;99.90
18321;DHT22;54904;54.350;18.664;2023-07-28T06:12:06;19.30;99.90
18321;DHT22;54904;54.350;18.664;2023-07-28T06:14:33;19.20;99.90
18321;DHT22;54904;54.350;18.664;2023-07-28T06:17:03;19.30;99.90
18321;DHT22;54904;54.350;18.664;2023-07-28T06:19:32;19.20;99.90
18321;DHT22;54904;54.350;18.664;2023-07-28T06:22:00;19.20;99.90
18321;DHT22;54904;54.350;18.664;2023-07-28T06:24:30;19.30;99.90
18321;DHT22;54904;54.350;18.664;2023-07-28T06:27:00;19.20;99.90
18321;DHT22;54904;54.350;18.664;2023-07-28T06:29:33;19.30;99.90
18321;DHT22;54904;54.350;18.664;2023-07-28T06:32:00;19.30;99.90
18321;DHT22;54904;54.350;18.664;2023-07-28T06:34:28;19.40;99.90
18321;DHT22;54904;54.350;18.664;2023-07-28T06:36:55;19.40;99.90
18321;DHT22;54904;54.350;18.664;2023-07-28T06:39:22;19.40;99.90
18321;DHT22;54904;54.350;18.664;2023-07-28T06:41:50;19.40;99.90
18321;DHT22;54904;54.350;18.664;2023-07-28T06:44:19;19.40;99.90
18321;DHT22;54904;54.350;18.664;2023-07-28T06:46:46;19.40;99.90
18321;DHT22;54904;54.350;18.664;2023-07-28T06:49:14;19.40;99.90
18321;DHT22;54904;54.350;18.664;2023-07-28T06:51:41;19.40;99.90
18321;DHT22;54904;54.350;18.664;2023-07-28T06:54:10;19.40;99.90
18321;DHT22;54904;54.350;18.664;2023-07-28T06:56:39;19.40;99.90
18321;DHT22;54904;54.350;18.664;2023-07-28T06:59:06;19.50;99.90
18321;DHT22;54904;54.350;18.664;2023-07-28T07:01:35;19.50;99.90
18321;DHT22;54904;54.350;18.664;2023-07-28T07:04:02;19.50;99.90
18321;DHT22;54904;54.350;18.664;2023-07-28T07:06:30;19.50;99.90
18321;DHT22;54904;54.350;18.664;2023-07-28T07:08:57;19.50;99.90
18321;DHT22;54904;54.350;18.664;2023-07-28T07:11:24;19.60;99.90
18321;DHT22;54904;54.350;18.664;2023-07-28T07:13:52;19.60;99.90
18321;DHT22;54904;54.350;18.664;2023-07-28T07:16:19;19.60;99.90
18321;DHT22;54904;54.350;18.664;2023-07-28T07:18:47;19.60;99.90
18321;DHT22;54904;54.350;18.664;2023-07-28T07:21:14;19.60;99.90
18321;DHT22;54904;54.350;18.664;2023-07-28T07:23:41;19.60;99.90
18321;DHT22;54904;54.350;18.664;2023-07-28T07:26:24;19.50;99.90
18321;DHT22;54904;54.350;18.664;2023-07-28T07:28:52;19.50;99.90
18321;DHT22;54904;54.350;18.664;2023-07-28T07:31:19;19.50;99.90
18321;DHT22;54904;54.350;18.664;2023-07-28T07:33:48;19.60;99.90
18321;DHT22;54904;54.350;18.664;2023-07-28T07:36:15;19.60;99.90
18321;DHT22;54904;54.350;18.664;2023-07-28T07:38:43;19.70;99.90
18321;DHT22;54904;54.350;18.664;2023-07-28T07:41:11;19.80;99.90
18321;DHT22;54904;54.350;18.664;2023-07-28T07:43:41;19.80;99.90
18321;DHT22;54904;54.350;18.664;2023-07-28T07:46:08;19.90;99.90
18321;DHT22;54904;54.350;18.664;2023-07-28T07:48:35;19.90;99.90
18321;DHT22;54904;54.350;18.664;2023-07-28T07:51:04;19.90;99.90
18321;DHT22;54904;54.350;18.664;2023-07-28T07:53:31;20.00;99.90
18321;DHT22;54904;54.350;18.664;2023-07-28T07:55:58;20.00;99.90
18321;DHT22;54904;54.350;18.664;2023-07-28T07:58:25;20.10;99.90
18321;DHT22;54904;54.350;18.664;2023-07-28T08:00:52;20.10;99.90
18321;DHT22;54904;54.350;18.664;2023-07-28T08:03:19;20.20;99.90
18321;DHT22;54904;54.350;18.664;2023-07-28T08:05:46;20.20;99.90
18321;DHT22;54904;54.350;18.664;2023-07-28T08:08:14;20.20;99.90
18321;DHT22;54904;54.350;18.664;2023-07-28T08:10:42;20.20;99.90
18321;DHT22;54904;54.350;18.664;2023-07-28T08:13:09;20.30;99.90
18321;DHT22;54904;54.350;18.664;2023-07-28T08:15:37;20.30;99.90
18321;DHT22;54904;54.350;18.664;2023-07-28T08:18:04;20.30;99.90
18321;DHT22;54904;54.350;18.664;2023-07-28T08:20:31;20.40;99.90
18321;DHT22;54904;54.350;18.664;2023-07-28T08:22:58;20.40;99.90
18321;DHT22;54904;54.350;18.664;2023-07-28T08:25:26;20.40;99.90
18321;DHT22;54904;54.350;18.664;2023-07-28T08:27:53;20.40;99.90
18321;DHT22;54904;54.350;18.664;2023-07-28T08:30:20;20.40;99.90
18321;DHT22;54904;54.350;18.664;2023-07-28T08:32:47;20.50;99.90
18321;DHT22;54904;54.350;18.664;2023-07-28T08:35:15;20.40;99.90
18321;DHT22;54904;54.350;18.664;2023-07-28T08:37:42;20.40;99.90
18321;DHT22;54904;54.350;18.664;2023-07-28T08:40:10;20.40;99.90
18321;DHT22;54904;54.350;18.664;2023-07-28T08:42:41;20.30;99.90
18321;DHT22;54904;54.350;18.664;2023-07-28T08:45:09;20.30;99.90
18321;DHT22;54904;54.350;18.664;2023-07-28T08:47:36;20.20;99.90
18321;DHT22;54904;54.350;18.664;2023-07-28T08:50:04;20.20;99.90
18321;DHT22;54904;54.350;18.664;2023-07-28T08:52:32;20.20;99.90
18321;DHT22;54904;54.350;18.664;2023-07-28T08:54:59;20.10;99.90
18321;DHT22;54904;54.350;18.664;2023-07-28T08:57:27;20.10;99.90
18321;DHT22;54904;54.350;18.664;2023-07-28T08:59:55;20.10;99.90
18321;DHT22;54904;54.350;18.664;2023-07-28T09:02:22;20.00;99.90
18321;DHT22;54904;54.350;18.664;2023-07-28T09:04:50;20.00;99.90
18321;DHT22;54904;54.350;18.664;2023-07-28T09:07:17;20.00;99.90
18321;DHT22;54904;54.350;18.664;2023-07-28T09:09:44;20.10;99.90
18321;DHT22;54904;54.350;18.664;2023-07-28T09:12:12;20.00;99.90
18321;DHT22;54904;54.350;18.664;2023-07-28T09:14:39;20.00;99.90
18321;DHT22;54904;54.350;18.664;2023-07-28T09:17:08;20.10;99.90
18321;DHT22;54904;54.350;18.664;2023-07-28T09:19:49;20.00;99.90
18321;DHT22;54904;54.350;18.664;2023-07-28T09:22:17;20.00;99.90
18321;DHT22;54904;54.350;18.664;2023-07-28T09:24:45;20.10;99.90
18321;DHT22;54904;54.350;18.664;2023-07-28T09:27:20;20.10;99.90
18321;DHT22;54904;54.350;18.664;2023-07-28T09:29:49;20.10;99.90
18321;DHT22;54904;54.350;18.664;2023-07-28T09:32:26;20.20;99.90
18321;DHT22;54904;54.350;18.664;2023-07-28T09:35:07;20.20;99.90
18321;DHT22;54904;54.350;18.664;2023-07-28T09:37:37;20.20;99.90
18321;DHT22;54904;54.350;18.664;2023-07-28T09:40:08;20.20;99.90
18321;DHT22;54904;54.350;18.664;2023-07-28T09:42:37;20.30;99.90
18321;DHT22;54904;54.350;18.664;2023-07-28T09:45:05;20.30;99.90
18321;DHT22;54904;54.350;18.664;2023-07-28T09:47:34;20.30;99.90
18321;DHT22;54904;54.350;18.664;2023-07-28T09:50:03;20.30;99.90
18321;DHT22;54904;54.350;18.664;2023-07-28T09:52:34;20.30;99.90
18321;DHT22;54904;54.350;18.664;2023-07-28T09:55:06;20.30;99.90
18321;DHT22;54904;54.350;18.664;2023-07-28T09:57:39;20.30;99.90
18321;DHT22;54904;54.350;18.664;2023-07-28T10:00:08;20.30;99.90
18321;DHT22;54904;54.350;18.664;2023-07-28T10:02:42;20.30;99.90
18321;DHT22;54904;54.350;18.664;2023-07-28T10:05:09;20.30;99.90
18321;DHT22;54904;54.350;18.664;2023-07-28T10:07:40;20.40;99.90
18321;DHT22;54904;54.350;18.664;2023-07-28T10:10:10;20.30;99.90
18321;DHT22;54904;54.350;18.664;2023-07-28T10:12:42;20.30;99.90
18321;DHT22;54904;54.350;18.664;2023-07-28T10:15:13;20.30;99.90
18321;DHT22;54904;54.350;18.664;2023-07-28T10:17:47;20.30;99.90
18321;DHT22;54904;54.350;18.664;2023-07-28T10:20:31;20.40;99.90
18321;DHT22;54904;54.350;18.664;2023-07-28T10:23:07;20.30;99.90
18321;DHT22;54904;54.350;18.664;2023-07-28T10:25:36;20.40;99.90
18321;DHT22;54904;54.350;18.664;2023-07-28T10:28:04;20.40;99.90
18321;DHT22;54904;54.350;18.664;2023-07-28T10:30:35;20.40;99.90
18321;DHT22;54904;54.350;18.664;2023-07-28T10:33:05;20.40;99.90
18321;DHT22;54904;54.350;18.664;2023-07-28T10:35:32;20.40;99.90
18321;DHT22;54904;54.350;18.664;2023-07-28T10:38:28;20.40;99.90
18321;DHT22;54904;54.350;18.664;2023-07-28T10:41:11;20.40;99.90
18321;DHT22;54904;54.350;18.664;2023-07-28T10:43:39;20.40;99.90
18321;DHT22;54904;54.350;18.664;2023-07-28T10:46:08;20.50;99.90
18321;DHT22;54904;54.350;18.664;2023-07-28T10:56:05;20.50;99.90
18321;DHT22;54904;54.350;18.664;2023-07-28T10:58:34;20.50;99.90
18321;DHT22;54904;54.350;18.664;2023-07-28T11:01:02;20.60;99.90
18321;DHT22;54904;54.350;18.664;2023-07-28T11:03:29;20.70;99.90
18321;DHT22;54904;54.350;18.664;2023-07-28T11:05:57;20.80;99.90
18321;DHT22;54904;54.350;18.664;2023-07-28T11:08:24;20.80;99.90
18321;DHT22;54904;54.350;18.664;2023-07-28T11:10:51;20.90;99.90
18321;DHT22;54904;54.350;18.664;2023-07-28T11:13:20;20.90;99.90
18321;DHT22;54904;54.350;18.664;2023-07-28T11:15:50;20.90;99.90
18321;DHT22;54904;54.350;18.664;2023-07-28T11:18:17;21.00;99.90
18321;DHT22;54904;54.350;18.664;2023-07-28T11:20:44;21.00;99.90
18321;DHT22;54904;54.350;18.664;2023-07-28T11:23:14;21.00;99.90
18321;DHT22;54904;54.350;18.664;2023-07-28T11:25:42;21.10;99.90
18321;DHT22;54904;54.350;18.664;2023-07-28T11:28:09;21.10;99.90
18321;DHT22;54904;54.350;18.664;2023-07-28T11:30:38;21.10;99.90
18321;DHT22;54904;54.350;18.664;2023-07-28T11:33:09;21.20;99.90
18321;DHT22;54904;54.350;18.664;2023-07-28T11:35:38;21.10;99.90
18321;DHT22;54904;54.350;18.664;2023-07-28T11:38:06;21.10;99.90
18321;DHT22;54904;54.350;18.664;2023-07-28T11:40:34;21.10;99.90
18321;DHT22;54904;54.350;18.664;2023-07-28T11:43:02;21.10;99.90
18321;DHT22;54904;54.350;18.664;2023-07-28T11:45:29;21.10;99.90
18321;DHT22;54904;54.350;18.664;2023-07-28T11:47:59;21.10;99.90
18321;DHT22;54904;54.350;18.664;2023-07-28T11:50:28;21.10;99.90
18321;DHT22;54904;54.350;18.664;2023-07-28T11:52:57;21.10;99.90
18321;DHT22;54904;54.350;18.664;2023-07-28T11:55:24;21.10;99.90
18321;DHT22;54904;54.350;18.664;2023-07-28T11:57:52;21.20;99.90
18321;DHT22;54904;54.350;18.664;2023-07-28T12:00:19;21.20;99.90
18321;DHT22;54904;54.350;18.664;2023-07-28T12:03:03;21.20;99.90
18321;DHT22;54904;54.350;18.664;2023-07-28T12:05:31;21.20;99.90
18321;DHT22;54904;54.350;18.664;2023-07-28T12:07:59;21.20;99.90
18321;DHT22;54904;54.350;18.664;2023-07-28T12:10:26;21.20;99.90
18321;DHT22;54904;54.350;18.664;2023-07-28T12:12:53;21.30;99.90
18321;DHT22;54904;54.350;18.664;2023-07-28T12:15:22;21.30;99.90
18321;DHT22;54904;54.350;18.664;2023-07-28T12:18:06;21.30;99.90
18321;DHT22;54904;54.350;18.664;2023-07-28T12:20:35;21.30;99.90
18321;DHT22;54904;54.350;18.664;2023-07-28T12:23:03;21.30;99.90
18321;DHT22;54904;54.350;18.664;2023-07-28T12:25:30;21.30;99.90
18321;DHT22;54904;54.350;18.664;2023-07-28T12:27:57;21.40;99.90
18321;DHT22;54904;54.350;18.664;2023-07-28T12:30:24;21.40;99.90
18321;DHT22;54904;54.350;18.664;2023-07-28T12:32:51;21.40;99.90
18321;DHT22;54904;54.350;18.664;2023-07-28T12:35:20;21.40;99.90
18321;DHT22;54904;54.350;18.664;2023-07-28T12:37:49;21.40;99.90
18321;DHT22;54904;54.350;18.664;2023-07-28T12:40:18;21.40;99.90
18321;DHT22;54904;54.350;18.664;2023-07-28T12:42:46;21.50;99.90
18321;DHT22;54904;54.350;18.664;2023-07-28T12:45:22;21.50;99.90
18321;DHT22;54904;54.350;18.664;2023-07-28T12:47:51;21.50;99.90
18321;DHT22;54904;54.350;18.664;2023-07-28T12:50:21;21.50;99.90
18321;DHT22;54904;54.350;18.664;2023-07-28T12:52:48;21.60;99.90
18321;DHT22;54904;54.350;18.664;2023-07-28T12:55:16;21.60;99.90
18321;DHT22;54904;54.350;18.664;2023-07-28T12:57:44;21.70;99.90
18321;DHT22;54904;54.350;18.664;2023-07-28T13:00:14;21.80;99.90
18321;DHT22;54904;54.350;18.664;2023-07-28T13:02:42;22.00;99.90
18321;DHT22;54904;54.350;18.664;2023-07-28T13:05:10;22.20;99.90
18321;DHT22;54904;54.350;18.664;2023-07-28T13:07:40;22.30;99.90
18321;DHT22;54904;54.350;18.664;2023-07-28T13:10:09;22.40;99.90
18321;DHT22;54904;54.350;18.664;2023-07-28T13:12:37;22.30;99.90
18321;DHT22;54904;54.350;18.664;2023-07-28T13:15:05;22.30;99.90
18321;DHT22;54904;54.350;18.664;2023-07-28T13:17:32;22.20;99.90
18321;DHT22;54904;54.350;18.664;2023-07-28T13:19:59;22.20;99.90
18321;DHT22;54904;54.350;18.664;2023-07-28T13:22:26;22.20;99.90
18321;DHT22;54904;54.350;18.664;2023-07-28T13:24:55;22.20;99.90
18321;DHT22;54904;54.350;18.664;2023-07-28T13:27:22;22.20;99.90
18321;DHT22;54904;54.350;18.664;2023-07-28T13:29:49;22.20;99.90
18321;DHT22;54904;54.350;18.664;2023-07-28T13:32:18;22.20;99.90
18321;DHT22;54904;54.350;18.664;2023-07-28T13:34:45;22.20;99.90
18321;DHT22;54904;54.350;18.664;2023-07-28T13:37:12;22.20;99.90
18321;DHT22;54904;54.350;18.664;2023-07-28T13:39:40;22.30;99.90
18321;DHT22;54904;54.350;18.664;2023-07-28T13:42:09;22.30;99.90
18321;DHT22;54904;54.350;18.664;2023-07-28T13:44:38;22.40;99.90
18321;DHT22;54904;54.350;18.664;2023-07-28T13:47:05;22.30;99.90
18321;DHT22;54904;54.350;18.664;2023-07-28T13:49:33;22.40;99.90
18321;DHT22;54904;54.350;18.664;2023-07-28T13:52:01;22.40;99.90
18321;DHT22;54904;54.350;18.664;2023-07-28T13:54:28;22.40;99.90
18321;DHT22;54904;54.350;18.664;2023-07-28T13:56:55;22.30;99.90
18321;DHT22;54904;54.350;18.664;2023-07-28T13:59:24;22.30;99.90
18321;DHT22;54904;54.350;18.664;2023-07-28T14:01:51;22.40;99.90
18321;DHT22;54904;54.350;18.664;2023-07-28T14:04:18;22.40;99.90
18321;DHT22;54904;54.350;18.664;2023-07-28T14:06:45;22.40;99.90
18321;DHT22;54904;54.350;18.664;2023-07-28T14:09:12;22.40;99.90
18321;DHT22;54904;54.350;18.664;2023-07-28T14:11:39;22.40;99.90
18321;DHT22;54904;54.350;18.664;2023-07-28T14:14:06;22.40;99.90
18321;DHT22;54904;54.350;18.664;2023-07-28T14:16:35;22.40;99.90
18321;DHT22;54904;54.350;18.664;2023-07-28T14:19:02;22.40;99.90
18321;DHT22;54904;54.350;18.664;2023-07-28T14:21:29;22.40;99.90
18321;DHT22;54904;54.350;18.664;2023-07-28T14:23:57;22.40;99.90
18321;DHT22;54904;54.350;18.664;2023-07-28T14:26:24;22.40;99.90
18321;DHT22;54904;54.350;18.664;2023-07-28T14:28:51;22.50;99.90
18321;DHT22;54904;54.350;18.664;2023-07-28T14:31:18;22.50;99.90
18321;DHT22;54904;54.350;18.664;2023-07-28T14:33:47;22.50;99.90
18321;DHT22;54904;54.350;18.664;2023-07-28T14:36:14;22.60;99.90
18321;DHT22;54904;54.350;18.664;2023-07-28T14:38:42;22.60;99.90
18321;DHT22;54904;54.350;18.664;2023-07-28T14:41:09;22.60;99.90
18321;DHT22;54904;54.350;18.664;2023-07-28T14:43:36;22.60;99.90
18321;DHT22;54904;54.350;18.664;2023-07-28T14:46:03;22.60;99.90
18321;DHT22;54904;54.350;18.664;2023-07-28T14:48:30;22.60;99.90
18321;DHT22;54904;54.350;18.664;2023-07-28T14:50:58;22.50;99.90
18321;DHT22;54904;54.350;18.664;2023-07-28T14:53:32;22.50;99.90
18321;DHT22;54904;54.350;18.664;2023-07-28T14:56:01;22.50;99.90
18321;DHT22;54904;54.350;18.664;2023-07-28T14:58:28;22.50;99.90
18321;DHT22;54904;54.350;18.664;2023-07-28T15:00:56;22.40;99.90
18321;DHT22;54904;54.350;18.664;2023-07-28T15:03:24;22.40;99.90
18321;DHT22;54904;54.350;18.664;2023-07-28T15:05:52;22.40;99.90
18321;DHT22;54904;54.350;18.664;2023-07-28T15:08:20;22.40;99.90
18321;DHT22;54904;54.350;18.664;2023-07-28T15:10:47;22.40;99.90
18321;DHT22;54904;54.350;18.664;2023-07-28T15:13:14;22.40;99.90
18321;DHT22;54904;54.350;18.664;2023-07-28T15:15:41;22.30;99.90
18321;DHT22;54904;54.350;18.664;2023-07-28T15:18:08;22.30;99.90
18321;DHT22;54904;54.350;18.664;2023-07-28T15:20:36;22.30;99.90
18321;DHT22;54904;54.350;18.664;2023-07-28T15:23:03;22.20;99.90
18321;DHT22;54904;54.350;18.664;2023-07-28T15:25:32;22.20;99.90
18321;DHT22;54904;54.350;18.664;2023-07-28T15:27:59;22.20;99.80
18321;DHT22;54904;54.350;18.664;2023-07-28T15:30:26;22.10;99.70
18321;DHT22;54904;54.350;18.664;2023-07-28T15:32:53;22.00;99.50